Assumption, Nebraska
Current Conditions -  °F | °C
As of 7:53 PM on Friday 31 Oct 2014 (Local Time) from KHSI Reporting Station
Clear Clear  
Wind Chill: 30°   Ceiling: Unl
Heat Index: 34°   Visibility: 10mi
Dew Point: 14°   Wind: 5mph
Humidity: 44%   Direction: 130°SE
Pressure: 30.4"   Gusts: NA
Location:  40.5679°N, 98.5535°W
Report Text: KHSI 010053Z AUTO 13004KT 10SM CLR 01/M10 A3040 RMK AO2 SLP316 T00111100
Loading
Personal Weather Stations






























Interactive Weather Map
Tropical Storm Tracking
New forecast layout! Learn more

10-Day Weather Forecast

Advertisements
Track Severe Weather on mobile